M/V Alferdawi-1 — XUEH7 — position and weather

sailwx.info

Track history (hours):
 
Tides and Currents Weather Stations Pressure Air Temp Water Temp Dewpoint Dewpoint Depression Visibility Wind Speed Wind Dir Waves Ship Positions

M/V Alferdawi-1

Last reported at 2014-Aug-24 06:20 UTC. Time now 2014-Aug-28 15:28 UTC.
Position N 40°59' E 028°60'.

Length 72 m; draft 4 m.

Type: Cargo ship. MMSI: 515640000.

Date/timePositionNaut miles runAvg speedWind from/ knotsBaromVisibWave heightAir tempDewpointWater temp
2014-Aug-24 06:20N 40°59' E 028°60'4 4.6
2014-Aug-24 05:33N 40°56' E 028°59'4 0.6
2014-Aug-23 22:16N 40°57' E 028°54'0 0.0
2014-Aug-23 21:21N 40°57' E 028°54'0 0.0
2014-Aug-23 20:14N 40°57' E 028°54'183 7.1
2014-Aug-22 18:30N 38°58' E 025°52'73 9.2
2014-Aug-22 10:33N 37°50' E 026°26'3010.1
2014-Aug-22 07:33N 37°25' E 026°48'2010.0
2014-Aug-22 05:33N 37°08' E 026°60'27 9.0
2014-Aug-22 02:31N 36°47' E 027°22'8 8.2
2014-Aug-22 01:33N 36°39' E 027°23'1010.0
2014-Aug-22 00:33N 36°35' E 027°34'  
2014-Aug-16 07:33N 36°28' E 027°55'9 9.2
2014-Aug-16 06:32N 36°31' E 027°43'10 9.9
2014-Aug-16 05:33N 36°35' E 027°32'1010.0
2014-Aug-16 04:33N 36°39' E 027°21'24 7.9
2014-Aug-16 01:27N 37°00' E 027°07'20 9.9
2014-Aug-15 23:29N 37°17' E 026°54'910.1
2014-Aug-15 22:33N 37°25' E 026°47'1310.2
2014-Aug-15 21:18N 37°35' E 026°37'810.0
2014-Aug-15 20:31N 37°41' E 026°32'8110.0
2014-Aug-15 12:25N 38°56' E 025°54'131 9.2
2014-Aug-14 22:14N 40°44' E 027°32'2910.3
2014-Aug-14 19:27N 40°50' E 028°09'3910.0
2014-Aug-14 15:33N 40°59' E 028°59'29 7.1
2014-Aug-14 11:31N 41°21' E 029°24'9 9.8
2014-Aug-14 10:33N 41°21' E 029°37'  
Track history (hours):
 
Tides and Currents Weather Stations Pressure Air Temp Water Temp Dewpoint Dewpoint Depression Visibility Wind Speed Wind Dir Waves Ship Positions

M/V Alferdawi-1

Last reported at 2014-Aug-24 06:20 UTC. Time now 2014-Aug-28 15:28 UTC.
Position N 40°59' E 028°60'.

Length 72 m; draft 4 m.

Type: Cargo ship. MMSI: 515640000.

Date/timePositionNaut miles runAvg speedWind from/ knotsBaromVisibWave heightAir tempDewpointWater temp
2014-Aug-24 06:20N 40°59' E 028°60'4 4.6
2014-Aug-24 05:33N 40°56' E 028°59'4 0.6
2014-Aug-23 22:16N 40°57' E 028°54'0 0.0
2014-Aug-23 21:21N 40°57' E 028°54'0 0.0
2014-Aug-23 20:14N 40°57' E 028°54'183 7.1
2014-Aug-22 18:30N 38°58' E 025°52'73 9.2
2014-Aug-22 10:33N 37°50' E 026°26'3010.1
2014-Aug-22 07:33N 37°25' E 026°48'2010.0
2014-Aug-22 05:33N 37°08' E 026°60'27 9.0
2014-Aug-22 02:31N 36°47' E 027°22'8 8.2
2014-Aug-22 01:33N 36°39' E 027°23'1010.0
2014-Aug-22 00:33N 36°35' E 027°34'  
2014-Aug-16 07:33N 36°28' E 027°55'9 9.2
2014-Aug-16 06:32N 36°31' E 027°43'10 9.9
2014-Aug-16 05:33N 36°35' E 027°32'1010.0
2014-Aug-16 04:33N 36°39' E 027°21'24 7.9
2014-Aug-16 01:27N 37°00' E 027°07'20 9.9
2014-Aug-15 23:29N 37°17' E 026°54'910.1
2014-Aug-15 22:33N 37°25' E 026°47'1310.2
2014-Aug-15 21:18N 37°35' E 026°37'810.0
2014-Aug-15 20:31N 37°41' E 026°32'8110.0
2014-Aug-15 12:25N 38°56' E 025°54'131 9.2
2014-Aug-14 22:14N 40°44' E 027°32'2910.3
2014-Aug-14 19:27N 40°50' E 028°09'3910.0
2014-Aug-14 15:33N 40°59' E 028°59'29 7.1
2014-Aug-14 11:31N 41°21' E 029°24'9 9.8
2014-Aug-14 10:33N 41°21' E 029°37'  

Dump ship's entire track history